Time;durP1;ratioP1;P1;durP2;ratioP2;P2;SDS_P1;SDS_P2;PMS_P1;PMS_P2;Temp;Humidity;BMP_temperature;BMP_pressure;BME280_temperature;BME280_humidity;BME280_pressure;Samples;Min_cycle;Max_cycle;Signal;HPM_P1;HPM_P2
2022/06/04 00:00:40;;;;;;;10.52;7.22;;;23.10;99.90;;;;;;4992362;28;20027;-72
2022/06/04 00:03:07;;;;;;;12.38;6.93;;;23.10;99.90;;;;;;4993512;28;20022;-73
2022/06/04 00:05:36;;;;;;;10.18;7.30;;;23.00;99.90;;;;;;4991400;28;20034;-72
2022/06/04 00:08:03;;;;;;;13.40;8.63;;;22.90;99.90;;;;;;4977498;28;20058;-73
2022/06/04 00:16:03;;;;;;;11.68;7.38;;;23.00;99.90;;;;;;4984245;28;20034;-73
2022/06/04 00:18:29;;;;;;;12.77;7.75;;;23.00;99.90;;;;;;4974319;28;20029;-72
2022/06/04 00:20:55;;;;;;;11.48;7.28;;;23.00;99.90;;;;;;4988446;28;20045;-72
2022/06/04 00:23:22;;;;;;;11.52;7.72;;;23.00;99.90;;;;;;4992625;28;20031;-73
2022/06/04 00:25:51;;;;;;;13.88;7.55;;;22.90;99.90;;;;;;4992604;28;20026;-71
2022/06/04 00:28:18;;;;;;;11.77;8.40;;;22.80;99.90;;;;;;4992425;28;20114;-73
2022/06/04 00:30:45;;;;;;;17.15;8.65;;;22.70;99.90;;;;;;4992314;28;20473;-66
2022/06/04 00:33:12;;;;;;;14.48;8.60;;;22.60;99.90;;;;;;4992791;28;20077;-73
2022/06/04 00:35:39;;;;;;;14.07;9.20;;;22.70;99.90;;;;;;4992586;28;20026;-71
2022/06/04 00:38:06;;;;;;;13.05;8.77;;;22.60;99.90;;;;;;4992290;28;20026;-72
2022/06/04 00:40:37;;;;;;;14.52;8.38;;;22.60;99.90;;;;;;4992085;28;20088;-72
2022/06/04 00:43:03;;;;;;;14.80;9.05;;;22.50;99.90;;;;;;4991529;28;20130;-72
2022/06/04 00:45:32;;;;;;;16.95;8.85;;;22.50;99.90;;;;;;4984478;28;20121;-72
2022/06/04 00:48:06;;;;;;;16.92;10.13;;;22.50;99.90;;;;;;4992529;28;20358;-72
2022/06/04 00:50:36;;;;;;;16.60;11.40;;;22.30;99.90;;;;;;4992020;28;20511;-71
2022/06/04 00:53:07;;;;;;;18.92;11.82;;;22.10;99.90;;;;;;4992133;28;20365;-72
2022/06/04 00:55:59;;;;;;;19.02;13.45;;;22.00;99.90;;;;;;4992191;28;20050;-72
2022/06/04 00:58:41;;;;;;;23.13;15.80;;;22.00;99.90;;;;;;4990344;28;20405;-73
2022/06/04 01:01:27;;;;;;;24.33;14.40;;;21.80;99.90;;;;;;4990085;28;20058;-70
2022/06/04 01:04:02;;;;;;;18.73;14.43;;;;;;;;;;4991895;28;20041;-72
2022/06/04 01:06:45;;;;;;;21.20;15.57;;;21.70;99.90;;;;;;4992141;28;20026;-70
2022/06/04 01:09:52;;;;;;;19.95;15.95;;;21.50;99.90;;;;;;4991857;28;20045;-67
2022/06/04 01:12:44;;;;;;;19.52;15.65;;;21.60;99.90;;;;;;4988851;28;20481;-71
2022/06/04 01:15:19;;;;;;;;;;;21.70;99.90;;;;;;4981115;28;20045;-69
2022/06/04 01:18:03;;;;;;;20.92;15.93;;;21.70;99.90;;;;;;4989986;28;20008;-72
2022/06/04 01:20:43;;;;;;;20.40;16.02;;;21.70;99.90;;;;;;4993716;28;20039;-71
2022/06/04 01:23:17;;;;;;;27.85;22.48;;;21.80;99.90;;;;;;4993350;28;20038;-71
2022/06/04 01:26:04;;;;;;;37.28;27.67;;;21.90;99.90;;;;;;4993569;28;20460;-72
2022/06/04 01:28:35;;;;;;;40.17;29.75;;;21.90;99.90;;;;;;4993654;28;20424;-72
2022/06/04 01:31:06;;;;;;;22.63;17.98;;;21.90;99.90;;;;;;4993246;28;20033;-67
2022/06/04 01:33:40;;;;;;;20.00;16.10;;;22.00;99.90;;;;;;5001294;28;20161;-73
2022/06/04 01:36:19;;;;;;;21.73;17.10;;;22.00;99.90;;;;;;4992854;28;20066;-71
2022/06/04 01:38:59;;;;;;;21.38;17.40;;;22.00;99.90;;;;;;4993410;28;20053;-72
2022/06/04 01:41:38;;;;;;;23.23;17.42;;;22.00;99.90;;;;;;4977264;28;20039;-69
2022/06/04 01:44:14;;;;;;;21.25;18.05;;;22.00;99.90;;;;;;4992735;28;20046;-70
2022/06/04 01:46:48;;;;;;;23.02;18.33;;;22.00;99.90;;;;;;4993393;28;20042;-68
2022/06/04 01:49:41;;;;;;;22.65;16.52;;;21.90;99.90;;;;;;4994681;28;20074;-70
2022/06/04 01:52:19;;;;;;;22.67;17.05;;;21.90;99.90;;;;;;4995568;28;20061;-68
2022/06/04 01:54:53;;;;;;;23.70;16.77;;;21.90;99.90;;;;;;4995421;28;20042;-71
2022/06/04 01:57:21;;;;;;;19.75;16.42;;;21.90;99.90;;;;;;4995668;28;20038;-73
2022/06/04 01:59:51;;;;;;;21.65;16.38;;;21.90;99.90;;;;;;4995293;28;20543;-71
2022/06/04 02:02:26;;;;;;;21.67;16.48;;;21.90;99.90;;;;;;4995981;28;20023;-72
2022/06/04 02:04:58;;;;;;;21.35;15.93;;;21.90;99.90;;;;;;4995460;28;20577;-71
2022/06/04 02:07:33;;;;;;;27.80;15.75;;;21.90;99.90;;;;;;4995285;28;20029;-71
2022/06/04 02:10:10;;;;;;;19.33;14.68;;;21.80;99.90;;;;;;4995601;28;20081;-73
2022/06/04 02:12:39;;;;;;;23.63;14.02;;;21.80;99.90;;;;;;4995551;28;20042;-71
2022/06/04 02:15:09;;;;;;;20.85;15.85;;;21.90;99.90;;;;;;4994878;28;20027;-72
2022/06/04 02:17:38;;;;;;;19.48;14.27;;;21.90;99.90;;;;;;4995325;28;20027;-72
2022/06/04 02:20:04;;;;;;;17.70;13.43;;;21.90;99.90;;;;;;4995003;28;20096;-72
2022/06/04 02:22:31;;;;;;;19.25;13.65;;;21.90;99.90;;;;;;4994928;28;20076;-73
2022/06/04 02:25:02;;;;;;;19.58;13.98;;;22.00;99.90;;;;;;4994779;28;20041;-73
2022/06/04 02:27:29;;;;;;;18.88;13.57;;;22.00;99.90;;;;;;4994931;28;20049;-72
2022/06/04 02:29:55;;;;;;;18.23;14.35;;;22.00;99.90;;;;;;4994488;28;20046;-69
2022/06/04 02:32:23;;;;;;;20.58;15.27;;;22.10;99.90;;;;;;4994883;28;20077;-69
2022/06/04 02:35:31;;;;;;;21.55;14.23;;;21.90;99.90;;;;;;4994686;28;20062;-73
2022/06/04 02:38:18;;;;;;;22.80;15.27;;;21.80;99.90;;;;;;4994825;28;20029;-69
2022/06/04 02:40:51;;;;;;;21.98;13.85;;;21.70;99.90;;;;;;4994870;28;20065;-69
2022/06/04 02:43:39;;;;;;;24.33;15.35;;;21.70;99.90;;;;;;4994170;28;20444;-70
2022/06/04 02:46:32;;;;;;;22.15;16.25;;;21.60;99.90;;;;;;4994499;28;20393;-71
2022/06/04 02:49:10;;;;;;;23.20;16.55;;;21.50;99.90;;;;;;4991216;28;20031;-69
2022/06/04 02:51:44;;;;;;;19.52;14.43;;;21.50;99.90;;;;;;4992139;28;20507;-69
2022/06/04 02:54:18;;;;;;;19.90;14.48;;;21.50;99.90;;;;;;4993387;28;20435;-72
2022/06/04 02:56:46;;;;;;;18.90;13.38;;;21.60;99.90;;;;;;4993702;28;20030;-70
2022/06/04 02:59:15;;;;;;;18.30;12.55;;;21.50;99.90;;;;;;4993978;28;20373;-72
2022/06/04 03:01:44;;;;;;;16.58;12.43;;;21.50;99.90;;;;;;4993937;28;20425;-72
2022/06/04 03:04:10;;;;;;;20.27;12.82;;;21.50;99.90;;;;;;4993472;28;20023;-72
2022/06/04 03:06:37;;;;;;;20.05;12.35;;;21.50;99.90;;;;;;4993720;28;20057;-70
2022/06/04 03:09:07;;;;;;;21.77;12.93;;;21.40;99.90;;;;;;4993385;28;20049;-71
2022/06/04 03:11:40;;;;;;;28.52;12.23;;;21.40;99.90;;;;;;4993411;28;20027;-72
2022/06/04 03:14:06;;;;;;;20.88;12.85;;;21.50;99.90;;;;;;4993299;28;20030;-72
2022/06/04 03:16:38;;;;;;;24.58;12.68;;;21.60;99.90;;;;;;4990588;28;20023;-72
2022/06/04 03:19:07;;;;;;;20.70;12.65;;;21.70;99.90;;;;;;4987623;28;20444;-71
2022/06/04 03:21:38;;;;;;;17.98;11.23;;;21.70;99.90;;;;;;4990109;28;20126;-74
2022/06/04 03:24:05;;;;;;;17.88;11.57;;;21.70;99.90;;;;;;4995140;28;20018;-73
2022/06/04 03:26:31;;;;;;;16.63;11.00;;;21.70;99.90;;;;;;4999688;28;20652;-73
2022/06/04 03:28:57;;;;;;;17.20;11.13;;;21.70;99.90;;;;;;4997168;28;20105;-71
2022/06/04 03:31:25;;;;;;;16.65;11.48;;;21.80;99.90;;;;;;4994416;28;20472;-73
2022/06/04 03:33:50;;;;;;;19.08;12.80;;;21.70;99.90;;;;;;4993336;28;20030;-72
2022/06/04 03:36:16;;;;;;;20.67;12.68;;;21.80;99.90;;;;;;4991151;28;20481;-72
2022/06/04 03:38:42;;;;;;;19.70;13.63;;;21.90;99.90;;;;;;4993559;28;20038;-73
2022/06/04 03:41:08;;;;;;;17.55;13.52;;;21.90;99.90;;;;;;4993339;28;20018;-72
2022/06/04 03:43:34;;;;;;;33.67;12.95;;;22.00;99.90;;;;;;5000653;28;20056;-73
2022/06/04 03:46:00;;;;;;;19.83;14.15;;;22.10;99.90;;;;;;4996674;28;20062;-73
2022/06/04 03:48:25;;;;;;;20.77;13.80;;;22.20;99.90;;;;;;4993499;28;20117;-71
2022/06/04 03:50:51;;;;;;;18.85;13.65;;;22.40;99.90;;;;;;4993181;28;20022;-68
2022/06/04 03:53:17;;;;;;;19.90;13.30;;;22.40;99.90;;;;;;4993574;28;20026;-67
2022/06/04 03:55:43;;;;;;;19.08;14.40;;;22.60;99.90;;;;;;4993504;28;20081;-66
2022/06/04 03:58:09;;;;;;;19.23;14.38;;;22.80;99.90;;;;;;4993087;28;20022;-69
2022/06/04 04:00:38;;;;;;;21.45;15.52;;;22.50;99.90;;;;;;4993065;28;20026;-73
2022/06/04 04:03:06;;;;;;;25.33;16.52;;;22.60;99.90;;;;;;4998598;28;20025;-64
2022/06/04 04:05:37;;;;;;;19.90;16.55;;;22.60;99.90;;;;;;4999934;28;20022;-70
2022/06/04 04:08:05;;;;;;;23.52;16.20;;;22.60;99.90;;;;;;4987753;28;20026;-73
2022/06/04 04:10:32;;;;;;;20.30;15.15;;;22.60;99.90;;;;;;4991192;28;20026;-68
2022/06/04 04:12:58;;;;;;;21.90;14.50;;;22.80;99.90;;;;;;4992551;28;20034;-65
2022/06/04 04:15:25;;;;;;;21.70;15.05;;;23.10;99.90;;;;;;4993782;28;20046;-74
2022/06/04 04:17:51;;;;;;;21.88;14.35;;;24.10;99.90;;;;;;4992863;28;20046;-67
2022/06/04 04:20:23;;;;;;;17.88;13.63;;;24.60;99.90;;;;;;4992940;28;20468;-72
2022/06/04 04:22:49;;;;;;;17.33;13.60;;;24.40;99.90;;;;;;4998177;28;20018;-73
2022/06/04 04:25:17;;;;;;;20.30;13.32;;;25.00;99.90;;;;;;4998399;28;20026;-74
2022/06/04 04:27:44;;;;;;;17.27;13.45;;;25.50;99.90;;;;;;5002774;28;20504;-74
2022/06/04 04:30:12;;;;;;;16.40;12.50;;;26.40;99.90;;;;;;4999533;28;20065;-73
2022/06/04 04:32:38;;;;;;;17.13;11.50;;;27.10;99.90;;;;;;4992740;28;20026;-73
2022/06/04 04:35:07;;;;;;;15.65;10.82;;;27.90;99.90;;;;;;4996184;28;20424;-73
2022/06/04 04:37:33;;;;;;;22.92;11.70;;;27.20;99.90;;;;;;4995530;28;20599;-74
2022/06/04 04:39:59;;;;;;;16.25;11.50;;;27.50;99.90;;;;;;4999521;28;20108;-74
2022/06/04 04:42:27;;;;;;;17.08;12.32;;;27.80;99.90;;;;;;5005450;28;20484;-73
2022/06/04 04:44:53;;;;;;;17.60;13.38;;;26.70;99.90;;;;;;4991475;28;20034;-70
2022/06/04 04:47:19;;;;;;;18.13;12.30;;;26.40;99.90;;;;;;4996808;28;20362;-71
2022/06/04 04:49:44;;;;;;;18.90;12.07;;;27.10;99.90;;;;;;4992730;28;20045;-73
2022/06/04 04:52:10;;;;;;;18.48;11.98;;;26.50;99.90;;;;;;4990350;28;20084;-73
2022/06/04 04:54:36;;;;;;;16.42;12.77;;;25.80;99.90;;;;;;4990469;28;20464;-73
2022/06/04 04:57:02;;;;;;;19.92;13.23;;;25.90;99.90;;;;;;4990316;28;20019;-74
2022/06/04 04:59:29;;;;;;;26.75;13.27;;;25.60;99.90;;;;;;4990804;28;20073;-68
2022/06/04 05:01:54;;;;;;;21.50;14.80;;;25.80;99.90;;;;;;4991470;28;20014;-74
2022/06/04 05:04:20;;;;;;;18.40;12.52;;;25.50;99.90;;;;;;4990128;28;20041;-67
2022/06/04 05:06:46;;;;;;;15.05;11.60;;;25.70;99.90;;;;;;4995328;28;20025;-73
2022/06/04 05:09:12;;;;;;;16.50;12.77;;;25.80;99.90;;;;;;4991120;28;20034;-73
2022/06/04 05:11:38;;;;;;;17.20;12.30;;;25.90;99.90;;;;;;4985529;28;20507;-72
2022/06/04 05:14:04;;;;;;;18.95;11.02;;;26.40;99.90;;;;;;4985027;28;20038;-73
2022/06/04 05:16:33;;;;;;;18.13;11.02;;;26.60;99.90;;;;;;4990850;28;20556;-73
2022/06/04 05:19:01;;;;;;;23.75;11.45;;;26.60;99.90;;;;;;4991970;28;20038;-71
2022/06/04 05:21:46;;;;;;;18.85;12.13;;;26.10;99.90;;;;;;4991959;28;20386;-68
2022/06/04 05:24:31;;;;;;;16.45;11.52;;;25.80;99.90;;;;;;4991821;28;20026;-73
2022/06/04 05:26:57;;;;;;;16.05;10.95;;;26.70;99.90;;;;;;4970779;28;20038;-73
2022/06/04 05:29:24;;;;;;;13.88;9.73;;;27.10;99.90;;;;;;4991398;28;20064;-67
2022/06/04 05:31:52;;;;;;;17.00;10.23;;;27.50;99.90;;;;;;4990663;28;20108;-74
2022/06/04 05:34:19;;;;;;;17.15;9.73;;;27.70;99.90;;;;;;4990600;28;20447;-74
2022/06/04 05:36:45;;;;;;;21.23;10.63;;;27.70;99.90;;;;;;4991318;28;20030;-72
2022/06/04 05:39:12;;;;;;;16.67;10.30;;;27.80;99.90;;;;;;4991575;28;20080;-65
2022/06/04 05:41:37;;;;;;;19.40;11.18;;;28.00;99.90;;;;;;4992405;28;20030;-72
2022/06/04 05:44:04;;;;;;;12.75;9.07;;;28.00;99.90;;;;;;4991369;28;20484;-71
2022/06/04 05:46:30;;;;;;;15.38;9.15;;;27.40;99.90;;;;;;4991616;28;20034;-74
2022/06/04 05:48:56;;;;;;;14.55;8.38;;;27.70;99.90;;;;;;4992064;28;20035;-72
2022/06/04 05:51:25;;;;;;;10.77;7.15;;;27.70;99.90;;;;;;4991697;28;20527;-73
2022/06/04 05:53:51;;;;;;;15.73;7.28;;;27.90;99.90;;;;;;4991544;28;20030;-72
2022/06/04 05:56:23;;;;;;;11.80;7.03;;;28.20;99.90;;;;;;4991636;28;20065;-70
2022/06/04 05:58:51;;;;;;;12.90;6.07;;;;;;;;;;4991312;28;20536;-73
2022/06/04 06:01:19;;;;;;;10.52;5.72;;;28.50;99.70;;;;;;4990869;28;20077;-71
2022/06/04 06:03:45;;;;;;;12.20;6.35;;;28.70;99.90;;;;;;4991375;28;20552;-72
2022/06/04 06:06:17;;;;;;;11.00;5.90;;;28.70;99.80;;;;;;4993026;28;20068;-71
2022/06/04 06:08:44;;;;;;;12.82;6.38;;;28.70;99.90;;;;;;4994971;28;20183;-71
2022/06/04 06:11:14;;;;;;;11.75;6.05;;;28.90;99.90;;;;;;4994787;28;20117;-72
2022/06/04 06:13:41;;;;;;;8.90;5.68;;;29.10;99.00;;;;;;4994602;28;20030;-72
2022/06/04 06:16:10;;;;;;;11.23;4.88;;;29.00;99.90;;;;;;4994948;28;20038;-71
2022/06/04 06:18:36;;;;;;;11.57;5.72;;;29.20;97.40;;;;;;4994955;28;20022;-72
2022/06/04 06:21:10;;;;;;;10.18;5.10;;;29.40;97.30;;;;;;4994382;28;20031;-71
2022/06/04 06:23:37;;;;;;;8.15;6.00;;;29.60;93.80;;;;;;4981886;28;20038;-71
2022/06/04 06:26:16;;;;;;;16.63;6.05;;;29.70;96.80;;;;;;4994682;28;20030;-70
2022/06/04 06:28:42;;;;;;;8.60;5.20;;;30.00;96.50;;;;;;4994087;28;20037;-72
2022/06/04 06:31:10;;;;;;;10.10;5.93;;;30.00;94.70;;;;;;4993739;28;20149;-68
2022/06/04 06:33:36;;;;;;;10.18;5.25;;;30.20;96.70;;;;;;4994640;28;20428;-72
2022/06/04 06:36:05;;;;;;;12.15;4.45;;;30.10;93.40;;;;;;4994496;28;20026;-70
2022/06/04 06:38:32;;;;;;;9.07;4.72;;;30.00;93.50;;;;;;4994267;28;20077;-68
2022/06/04 06:40:59;;;;;;;12.88;6.30;;;30.10;94.50;;;;;;4994347;28;20026;-73
2022/06/04 06:46:08;;;;;;;9.90;5.72;;;30.10;92.90;;;;;;4993218;28;20030;-68
2022/06/04 06:48:36;;;;;;;7.90;5.03;;;30.30;95.00;;;;;;4994115;28;20037;-72
2022/06/04 06:51:12;;;;;;;10.68;5.22;;;30.50;94.00;;;;;;4993684;28;20057;-72
2022/06/04 06:53:38;;;;;;;9.82;5.60;;;30.70;93.20;;;;;;4992241;28;20026;-69
2022/06/04 06:56:15;;;;;;;9.98;5.03;;;30.70;91.30;;;;;;4993296;28;20109;-69
2022/06/04 06:58:42;;;;;;;9.18;5.50;;;30.70;90.90;;;;;;4992745;28;20034;-72
2022/06/04 07:01:08;;;;;;;14.90;6.93;;;30.70;91.50;;;;;;4993692;28;20019;-72
2022/06/04 07:03:35;;;;;;;13.00;7.10;;;;;;;;;;5007219;28;20503;-71
2022/06/04 07:06:01;;;;;;;9.90;5.78;;;30.80;91.40;;;;;;4955412;28;20645;-73
2022/06/04 07:08:27;;;;;;;10.57;4.95;;;30.50;92.10;;;;;;4973301;28;20034;-71
2022/06/04 07:10:53;;;;;;;9.43;5.50;;;30.40;93.60;;;;;;4973735;28;20030;-72
2022/06/04 07:13:19;;;;;;;10.55;5.07;;;30.50;90.20;;;;;;4975185;28;20113;-72
2022/06/04 07:15:45;;;;;;;9.60;5.38;;;30.70;90.40;;;;;;4968300;28;20174;-72
2022/06/04 07:18:15;;;;;;;14.77;7.22;;;30.80;88.70;;;;;;4973515;28;20465;-69
2022/06/04 07:20:42;;;;;;;15.38;7.18;;;30.80;93.60;;;;;;4973962;28;20042;-71
2022/06/04 07:23:09;;;;;;;11.00;6.32;;;30.60;90.90;;;;;;4973350;28;20019;-69
2022/06/04 07:25:35;;;;;;;13.80;6.57;;;30.70;90.50;;;;;;4972837;28;20023;-70
2022/06/04 07:28:01;;;;;;;12.68;5.95;;;30.10;93.00;;;;;;4973841;28;20026;-70
2022/06/04 07:30:27;;;;;;;9.20;6.38;;;30.20;92.10;;;;;;4973888;28;20489;-69
2022/06/04 07:32:53;;;;;;;14.85;6.15;;;29.60;92.30;;;;;;4974094;28;20093;-69
2022/06/04 07:35:22;;;;;;;13.13;6.60;;;29.70;94.20;;;;;;4973905;28;20043;-68
2022/06/04 07:37:48;;;;;;;12.10;6.60;;;29.80;94.00;;;;;;4973707;28;20015;-69
2022/06/04 07:40:14;;;;;;;17.90;7.65;;;30.10;93.00;;;;;;4973463;28;20029;-69
2022/06/04 07:42:40;;;;;;;11.70;7.35;;;30.40;94.40;;;;;;4973056;28;20461;-71
2022/06/04 07:45:06;;;;;;;11.38;6.53;;;30.20;95.70;;;;;;4972815;28;20046;-69
2022/06/04 07:47:34;;;;;;;13.40;6.90;;;30.30;98.70;;;;;;4973640;28;20358;-71
2022/06/04 07:50:01;;;;;;;16.10;7.60;;;30.00;94.50;;;;;;4973317;28;20027;-70
2022/06/04 07:52:26;;;;;;;13.30;7.53;;;30.10;98.70;;;;;;4973408;28;20027;-70
2022/06/04 07:54:52;;;;;;;13.77;7.25;;;30.30;97.50;;;;;;4973226;28;20085;-71
2022/06/04 07:57:18;;;;;;;12.45;6.22;;;30.90;97.50;;;;;;4972503;28;20041;-68
2022/06/04 07:59:45;;;;;;;13.88;6.40;;;31.20;96.60;;;;;;4973223;28;20033;-66
2022/06/04 08:02:12;;;;;;;9.30;5.20;;;31.70;94.80;;;;;;4973459;28;20030;-67
2022/06/04 08:04:38;;;;;;;13.75;7.00;;;31.70;91.60;;;;;;4973486;28;20022;-70
2022/06/04 08:07:05;;;;;;;12.52;7.00;;;31.80;91.60;;;;;;4973278;28;20065;-72
2022/06/04 08:09:32;;;;;;;16.25;6.05;;;31.70;90.40;;;;;;4987821;28;20034;-70
2022/06/04 08:11:59;;;;;;;10.18;6.38;;;31.50;90.70;;;;;;4972925;28;20037;-68
2022/06/04 08:14:26;;;;;;;12.55;6.95;;;31.20;90.10;;;;;;4964709;28;20504;-71
2022/06/04 08:16:58;;;;;;;14.48;6.25;;;30.90;90.10;;;;;;4972781;28;20029;-70
2022/06/04 08:19:26;;;;;;;8.88;5.80;;;31.10;88.80;;;;;;4972631;28;20492;-71
2022/06/04 08:21:52;;;;;;;12.23;6.35;;;31.20;94.30;;;;;;4973013;28;20029;-71
2022/06/04 08:24:20;;;;;;;18.08;6.22;;;31.60;92.30;;;;;;4973317;28;20030;-70
2022/06/04 08:26:47;;;;;;;15.98;6.60;;;31.50;90.00;;;;;;4973080;28;20080;-72
2022/06/04 08:29:14;;;;;;;13.13;6.88;;;31.70;90.50;;;;;;4972390;28;20026;-70
2022/06/04 08:31:41;;;;;;;16.52;7.38;;;31.90;91.00;;;;;;4973586;28;20050;-72
2022/06/04 08:34:07;;;;;;;11.75;7.15;;;31.90;92.10;;;;;;4972869;28;20485;-71
2022/06/04 08:36:33;;;;;;;13.68;6.75;;;31.90;90.30;;;;;;4972818;28;20023;-71
2022/06/04 08:39:00;;;;;;;13.63;7.40;;;32.20;91.50;;;;;;4972559;28;20046;-70
2022/06/04 08:41:44;;;;;;;14.30;7.38;;;31.70;89.30;;;;;;4973049;28;20157;-71
2022/06/04 08:44:20;;;;;;;12.85;6.85;;;31.90;85.80;;;;;;4964582;28;20043;-71
2022/06/04 08:47:00;;;;;;;14.40;7.05;;;31.40;87.70;;;;;;4972607;28;20046;-72
2022/06/04 08:49:32;;;;;;;12.38;6.95;;;31.30;91.30;;;;;;4972963;28;20018;-71
2022/06/04 08:52:02;;;;;;;8.65;6.28;;;31.30;91.20;;;;;;4972978;28;20508;-71
2022/06/04 08:57:33;;;;;;;13.32;7.20;;;31.50;91.60;;;;;;4971863;28;20023;-72
2022/06/04 09:00:21;;;;;;;9.75;7.10;;;31.40;94.30;;;;;;4972922;28;20027;-71
2022/06/04 09:02:59;;;;;;;12.07;7.53;;;31.30;92.10;;;;;;4972281;28;20046;-69
2022/06/04 09:05:32;;;;;;;15.55;6.68;;;31.20;94.60;;;;;;4972407;28;20030;-71
2022/06/04 09:08:09;;;;;;;12.43;7.22;;;30.90;90.40;;;;;;4972147;28;20118;-70
2022/06/04 09:10:55;;;;;;;12.50;6.88;;;30.70;92.20;;;;;;4972637;28;20026;-72
2022/06/04 09:13:34;;;;;;;10.95;7.07;;;30.50;94.10;;;;;;4972562;28;20026;-70
2022/06/04 09:16:13;;;;;;;11.30;6.85;;;30.70;95.30;;;;;;4972173;28;20042;-70
2022/06/04 09:18:39;;;;;;;12.65;6.78;;;30.90;95.40;;;;;;4972446;28;20417;-69
2022/06/04 09:21:09;;;;;;;11.77;7.22;;;31.10;94.70;;;;;;4971454;28;20078;-70
2022/06/04 09:23:35;;;;;;;16.58;8.63;;;31.60;96.50;;;;;;4981378;28;20031;-70
2022/06/04 09:26:08;;;;;;;12.23;7.45;;;31.40;91.90;;;;;;4976005;28;20516;-69
2022/06/04 09:28:43;;;;;;;10.75;6.57;;;31.40;95.10;;;;;;4972261;28;20027;-71
2022/06/04 09:31:46;;;;;;;14.23;8.00;;;31.40;93.00;;;;;;4972061;28;20027;-71
2022/06/04 09:34:40;;;;;;;12.82;7.15;;;31.30;93.40;;;;;;4949897;29;20059;-70
2022/06/04 09:37:08;;;;;;;11.95;6.55;;;31.40;93.50;;;;;;4949927;29;20086;-72
2022/06/04 09:39:37;;;;;;;10.27;6.22;;;31.50;93.60;;;;;;4950896;28;20066;-72
2022/06/04 09:42:06;;;;;;;11.55;6.20;;;31.30;92.80;;;;;;4953368;29;20053;-70
2022/06/04 09:44:37;;;;;;;11.13;6.53;;;31.40;91.30;;;;;;4953628;29;20485;-70
2022/06/04 09:47:28;;;;;;;10.32;6.53;;;31.40;94.40;;;;;;4954494;29;20126;-72
2022/06/04 09:50:00;;;;;;;16.27;7.93;;;31.60;93.00;;;;;;4953594;29;20394;-69
2022/06/04 09:52:55;;;;;;;19.70;7.00;;;31.60;91.80;;;;;;4953449;29;20039;-72
2022/06/04 09:55:23;;;;;;;12.82;6.50;;;31.60;91.40;;;;;;4952950;29;20046;-71
2022/06/04 09:58:20;;;;;;;9.05;6.30;;;31.70;92.90;;;;;;4953636;28;20047;-71
2022/06/04 10:00:57;;;;;;;17.83;8.75;;;31.60;90.10;;;;;;4946753;28;20043;-71
2022/06/04 10:03:23;;;;;;;13.35;8.98;;;31.90;91.40;;;;;;4953875;29;20126;-70
2022/06/04 10:06:11;;;;;;;11.55;5.97;;;31.90;88.80;;;;;;4953952;29;20063;-72
2022/06/04 10:11:53;;;;;;;12.05;6.82;;;31.90;91.00;;;;;;4967669;28;20039;-68
2022/06/04 10:14:40;;;;;;;12.88;5.38;;;31.90;90.70;;;;;;4975597;28;20031;-66
2022/06/04 10:17:31;;;;;;;10.98;5.13;;;31.80;83.50;;;;;;4973594;28;20437;-68
2022/06/04 10:19:58;;;;;;;12.38;6.00;;;31.60;81.00;;;;;;4974750;28;20503;-64
2022/06/04 10:22:23;;;;;;;13.07;5.65;;;31.50;84.10;;;;;;4975063;28;20037;-65
2022/06/04 10:24:52;;;;;;;12.45;6.55;;;31.10;83.60;;;;;;4975055;28;20031;-66
2022/06/04 10:27:42;;;;;;;10.85;6.10;;;31.10;84.40;;;;;;4974818;28;20019;-69
2022/06/04 10:30:22;;;;;;;10.52;5.53;;;31.20;90.00;;;;;;4974910;28;20027;-72
2022/06/04 10:33:03;;;;;;;12.93;6.07;;;31.20;87.30;;;;;;4975390;28;20373;-65
2022/06/04 10:35:41;;;;;;;6.82;5.25;;;31.20;88.50;;;;;;4960985;28;20038;-71
2022/06/04 10:38:29;;;;;;;10.88;6.10;;;31.40;88.70;;;;;;4974784;28;20023;-71
2022/06/04 10:41:26;;;;;;;9.75;5.50;;;31.60;89.70;;;;;;4974013;28;20377;-70
2022/06/04 10:44:01;;;;;;;13.32;6.40;;;31.40;86.20;;;;;;4972041;28;20097;-64
2022/06/04 10:46:31;;;;;;;8.15;5.53;;;31.20;88.00;;;;;;4974723;28;20754;-67
2022/06/04 10:49:51;;;;;;;11.35;5.85;;;31.30;87.70;;;;;;4974925;28;20449;-71
2022/06/04 10:52:25;;;;;;;8.88;5.38;;;31.20;89.80;;;;;;4973317;28;20058;-65
2022/06/04 10:55:22;;;;;;;9.85;5.72;;;31.30;88.40;;;;;;4974816;28;20500;-68
2022/06/04 10:58:06;;;;;;;8.18;6.03;;;31.40;90.70;;;;;;4974382;28;20141;-70
2022/06/04 11:00:44;;;;;;;10.63;6.85;;;31.40;90.10;;;;;;4974426;28;20376;-64
2022/06/04 11:03:19;;;;;;;10.65;5.65;;;31.60;89.50;;;;;;4975948;28;20109;-64
2022/06/04 11:06:16;;;;;;;10.50;5.82;;;31.60;87.10;;;;;;4971757;28;20030;-68
2022/06/04 11:08:54;;;;;;;10.23;5.95;;;31.60;86.80;;;;;;4983166;28;20039;-71
2022/06/04 11:11:32;;;;;;;11.73;5.75;;;31.60;82.20;;;;;;4973761;28;20500;-70
2022/06/04 11:14:09;;;;;;;8.80;5.20;;;31.60;82.10;;;;;;4974071;28;20037;-71
2022/06/04 11:16:45;;;;;;;8.13;5.15;;;31.80;83.90;;;;;;4973486;28;20039;-71
2022/06/04 11:19:27;;;;;;;15.52;6.05;;;31.90;82.80;;;;;;4974141;28;20200;-68
2022/06/04 11:22:12;;;;;;;9.82;5.40;;;31.90;84.70;;;;;;4974090;28;20069;-69
2022/06/04 11:24:53;;;;;;;13.63;6.75;;;32.00;83.00;;;;;;4974101;28;20089;-70
2022/06/04 11:27:35;;;;;;;7.10;4.85;;;32.20;83.60;;;;;;4974508;28;20050;-70
2022/06/04 11:30:02;;;;;;;;;;;32.00;84.60;;;;;;4973814;28;20110;-70
2022/06/04 11:32:59;;;;;;;11.60;5.93;;;31.80;85.10;;;;;;4972667;28;19914;-71
2022/06/04 11:35:33;;;;;;;11.40;4.93;;;32.00;82.80;;;;;;4974087;28;20524;-69
2022/06/04 11:38:07;;;;;;;9.73;4.32;;;32.00;81.90;;;;;;4973562;28;20026;-71
2022/06/04 11:41:10;;;;;;;7.65;4.45;;;32.20;79.80;;;;;;4973754;28;20092;-69
2022/06/04 11:44:14;;;;;;;9.63;3.42;;;32.20;78.20;;;;;;4964583;28;20138;-71
2022/06/04 11:47:17;;;;;;;8.13;3.85;;;32.30;72.20;;;;;;4961901;28;20074;-70
2022/06/04 11:50:01;;;;;;;5.78;3.70;;;32.30;73.60;;;;;;4973479;28;20033;-71
2022/06/04 11:52:31;;;;;;;8.32;4.43;;;32.10;72.30;;;;;;4972603;28;20031;-71
2022/06/04 11:55:15;;;;;;;6.53;3.50;;;32.20;75.50;;;;;;4973649;28;20034;-71
2022/06/04 11:58:04;;;;;;;8.32;4.25;;;32.30;73.20;;;;;;4973593;28;20251;-71
2022/06/04 12:00:39;;;;;;;10.68;4.35;;;32.20;71.50;;;;;;4973617;28;20058;-71
2022/06/04 12:03:14;;;;;;;9.88;3.35;;;32.30;72.80;;;;;;4972730;28;20033;-70
2022/06/04 12:05:43;;;;;;;4.63;3.03;;;32.50;71.60;;;;;;4972853;28;20030;-70
2022/06/04 12:08:19;;;;;;;7.70;3.45;;;32.50;69.50;;;;;;4972825;28;20038;-71
2022/06/04 12:10:53;;;;;;;7.72;3.33;;;32.60;70.30;;;;;;4972983;28;20023;-72
2022/06/04 12:13:23;;;;;;;8.05;3.50;;;32.60;69.30;;;;;;4970584;28;20102;-71
2022/06/04 12:15:55;;;;;;;9.50;3.80;;;32.60;68.90;;;;;;4967285;28;20055;-70
2022/06/04 12:18:35;;;;;;;7.45;3.78;;;32.50;69.00;;;;;;4973298;28;20393;-70
2022/06/04 12:26:41;;;;;;;7.00;3.85;;;32.50;68.50;;;;;;4951478;28;20035;-71
2022/06/04 12:29:29;;;;;;;6.70;3.08;;;32.60;70.30;;;;;;4971345;28;20025;-71
2022/06/04 12:31:58;;;;;;;6.20;3.42;;;32.70;69.80;;;;;;4971104;28;20046;-73
2022/06/04 12:34:34;;;;;;;10.95;3.97;;;32.80;70.60;;;;;;4971572;28;20392;-72
2022/06/04 12:37:01;;;;;;;8.73;3.22;;;32.70;67.60;;;;;;4973082;28;20031;-73
2022/06/04 12:39:35;;;;;;;11.32;3.90;;;32.50;66.80;;;;;;4973379;28;20031;-73
2022/06/04 12:42:19;;;;;;;7.65;3.67;;;32.40;69.50;;;;;;4973156;28;20023;-72
2022/06/04 12:45:22;;;;;;;7.45;4.00;;;32.40;68.10;;;;;;4964672;28;20073;-73
2022/06/04 12:47:55;;;;;;;9.60;3.50;;;32.50;70.40;;;;;;4963644;28;20050;-72
2022/06/04 12:50:27;;;;;;;7.72;3.33;;;32.50;68.70;;;;;;4971798;28;20027;-73
2022/06/04 12:53:30;;;;;;;7.57;3.58;;;32.50;69.00;;;;;;4973042;28;20046;-73
2022/06/04 12:55:57;;;;;;;7.57;3.42;;;32.40;69.10;;;;;;4951388;28;20054;-73
2022/06/04 12:58:55;;;;;;;10.40;3.88;;;32.50;70.00;;;;;;4970735;28;20109;-72
2022/06/04 13:01:29;;;;;;;9.20;4.00;;;32.70;69.30;;;;;;4970025;28;20405;-73
2022/06/04 13:04:10;;;;;;;11.77;4.47;;;32.70;69.40;;;;;;4953534;28;20119;-72
2022/06/04 13:06:36;;;;;;;7.30;3.60;;;32.90;70.50;;;;;;4969825;28;20038;-64
2022/06/04 13:09:13;;;;;;;7.05;3.80;;;32.70;69.40;;;;;;4969806;28;20077;-71
2022/06/04 13:11:43;;;;;;;7.55;3.80;;;32.70;69.50;;;;;;4962765;28;20056;-71
2022/06/04 13:14:28;;;;;;;7.55;3.75;;;32.70;70.90;;;;;;4934644;29;20040;-72
2022/06/04 13:16:57;;;;;;;10.02;3.95;;;32.70;70.70;;;;;;4942174;29;20047;-71
2022/06/04 13:19:41;;;;;;;9.77;3.88;;;32.70;69.50;;;;;;4953884;28;20501;-71
2022/06/04 13:22:27;;;;;;;7.25;3.40;;;32.70;67.80;;;;;;4973300;28;20031;-72
2022/06/04 13:24:54;;;;;;;6.45;3.95;;;32.60;68.20;;;;;;4969117;28;20118;-68